Time;durP1;ratioP1;P1;durP2;ratioP2;P2;SDS_P1;SDS_P2;PMS_P1;PMS_P2;Temp;Humidity;BMP_temperature;BMP_pressure;BME280_temperature;BME280_humidity;BME280_pressure;Samples;Min_cycle;Max_cycle;Signal;HPM_P1;HPM_P2
2022/01/16 00:01:33;;;;;;;;;;;0.30;99.90;;;;;;4230057;27;20015;-54
2022/01/16 00:05:55;;;;;;;;;;;0.30;99.90;;;;;;4237017;27;19985;-54
2022/01/16 00:07:57;;;;;;;;;;;0.30;99.90;;;;;;4239477;27;19928;-54
2022/01/16 00:10:02;;;;;;;;;;;0.40;99.90;;;;;;4236297;27;19931;-54
2022/01/16 00:12:06;;;;;;;;;;;0.40;99.90;;;;;;4240815;27;19927;-53
2022/01/16 00:14:09;;;;;;;;;;;0.40;99.90;;;;;;4230070;27;20417;-53
2022/01/16 00:16:13;;;;;;;;;;;0.50;99.90;;;;;;4230375;27;19931;-53
2022/01/16 00:18:26;;;;;;;;;;;0.50;99.90;;;;;;4235825;27;19927;-52
2022/01/16 00:20:28;;;;;;;;;;;0.50;99.90;;;;;;4232953;27;19927;-54
2022/01/16 00:22:36;;;;;;;;;;;0.60;99.90;;;;;;4234186;27;19927;-53
2022/01/16 00:24:38;;;;;;;;;;;0.60;99.90;;;;;;4233344;27;20357;-53
2022/01/16 00:26:41;;;;;;;;;;;0.60;99.90;;;;;;4227099;28;19928;-54
2022/01/16 00:28:43;;;;;;;;;;;0.40;99.90;;;;;;4232401;28;19985;-54
2022/01/16 00:30:45;;;;;;;;;;;0.40;99.90;;;;;;4228114;28;19947;-54
2022/01/16 00:32:47;;;;;;;;;;;0.30;99.90;;;;;;4233943;28;20438;-52
2022/01/16 00:34:49;;;;;;;;;;;0.40;99.90;;;;;;4234074;28;20379;-53
2022/01/16 00:36:51;;;;;;;;;;;0.40;99.90;;;;;;4240655;28;19974;-50
2022/01/16 00:38:54;;;;;;;;;;;0.30;99.90;;;;;;4239892;28;19934;-53
2022/01/16 00:40:55;;;;;;;;;;;0.10;99.90;;;;;;4239210;28;19966;-52
2022/01/16 00:42:57;;;;;;;;;;;0.20;99.90;;;;;;4226622;28;20304;-54
2022/01/16 00:44:59;;;;;;;;;;;0.10;99.90;;;;;;4233930;28;19928;-52
2022/01/16 00:47:01;;;;;;;;;;;0.00;99.90;;;;;;4227656;28;19963;-53
2022/01/16 00:49:04;;;;;;;;;;;-0.10;99.90;;;;;;4237586;28;20028;-53
2022/01/16 00:51:06;;;;;;;;;;;0.00;99.90;;;;;;4236580;28;19938;-54
2022/01/16 00:53:08;;;;;;;;;;;0.10;99.90;;;;;;4240441;28;20031;-52
2022/01/16 00:55:10;;;;;;;;;;;0.10;99.90;;;;;;4235873;28;20333;-53
2022/01/16 00:57:12;;;;;;;;;;;0.10;99.90;;;;;;4237581;28;20022;-52
2022/01/16 00:59:14;;;;;;;;;;;0.20;99.90;;;;;;4236732;28;19927;-53
2022/01/16 01:01:16;;;;;;;;;;;0.20;99.90;;;;;;4233945;28;19974;-51
2022/01/16 01:03:18;;;;;;;;;;;0.10;99.90;;;;;;4236108;28;19924;-54
2022/01/16 01:05:20;;;;;;;;;;;0.10;99.90;;;;;;4230299;28;19953;-53
2022/01/16 01:07:22;;;;;;;;;;;0.10;99.90;;;;;;4227394;28;19970;-53
2022/01/16 01:09:24;;;;;;;;;;;0.00;99.90;;;;;;4229423;28;20279;-54
2022/01/16 01:11:29;;;;;;;;;;;0.00;99.90;;;;;;4228297;28;20391;-54
2022/01/16 01:13:34;;;;;;;;;;;-0.10;99.90;;;;;;4240060;28;20410;-53
2022/01/16 01:15:44;;;;;;;;;;;-0.20;99.90;;;;;;4235518;28;19934;-53
2022/01/16 01:17:48;;;;;;;;;;;-0.10;99.90;;;;;;4242077;28;19930;-53
2022/01/16 01:19:50;;;;;;;;;;;0.00;99.90;;;;;;4230489;28;19924;-52
2022/01/16 01:21:52;;;;;;;;;;;0.10;99.90;;;;;;4228638;28;20450;-51
2022/01/16 01:23:55;;;;;;;;;;;0.20;99.90;;;;;;4229733;28;20021;-53
2022/01/16 01:25:57;;;;;;;;;;;0.20;99.90;;;;;;4230298;28;19985;-53
2022/01/16 01:27:59;;;;;;;;;;;0.20;99.90;;;;;;4233773;28;19924;-52
2022/01/16 01:30:10;;;;;;;;;;;0.20;99.90;;;;;;4235582;28;20784;-53
2022/01/16 01:32:12;;;;;;;;;;;0.10;99.90;;;;;;4235166;27;19962;-53
2022/01/16 01:34:14;;;;;;;;;;;-0.10;99.90;;;;;;4243249;28;19962;-53
2022/01/16 01:36:16;;;;;;;;;;;-0.20;99.90;;;;;;4228722;28;20422;-53
2022/01/16 01:38:20;;;;;;;;;;;-0.20;99.90;;;;;;4228521;28;19927;-53
2022/01/16 01:40:25;;;;;;;;;;;-0.20;99.90;;;;;;4236431;28;19950;-53
2022/01/16 01:42:33;;;;;;;;;;;-0.20;99.90;;;;;;4240551;28;19959;-53
2022/01/16 01:51:42;;;;;;;;;;;-0.40;99.90;;;;;;4238908;27;19959;-54
2022/01/16 01:53:44;;;;;;;;;;;-0.60;99.90;;;;;;4242005;27;20022;-54
2022/01/16 01:55:47;;;;;;;;;;;-0.60;99.90;;;;;;4240389;27;19929;-53
2022/01/16 01:57:49;;;;;;;;;;;-0.60;99.90;;;;;;4235487;27;19924;-53
2022/01/16 01:59:51;;;;;;;;;;;-0.50;99.90;;;;;;4241285;27;20061;-53
2022/01/16 02:01:53;;;;;;;;;;;-0.60;99.90;;;;;;4238121;27;19955;-54
2022/01/16 02:03:55;;;;;;;;;;;-0.60;99.90;;;;;;4239562;27;19927;-55
2022/01/16 02:05:57;;;;;;;;;;;-0.50;99.90;;;;;;4242412;27;19951;-55
2022/01/16 02:07:59;;;;;;;;;;;-0.50;99.90;;;;;;4240473;27;20280;-54
2022/01/16 02:10:03;;;;;;;;;;;-0.50;99.90;;;;;;4241987;27;20506;-56
2022/01/16 02:12:05;;;;;;;;;;;-0.50;99.90;;;;;;4216736;28;20046;-55
2022/01/16 02:14:13;;;;;;;;;;;-0.50;99.90;;;;;;4236762;27;19927;-55
2022/01/16 02:28:13;;;;;;;;;;;-0.80;99.90;;;;;;4232826;27;19927;-54
2022/01/16 02:34:36;;;;;;;;;;;-0.70;99.90;;;;;;4211863;28;19962;-55
2022/01/16 02:36:46;;;;;;;;;;;-0.70;99.90;;;;;;4231984;27;19977;-55
2022/01/16 02:38:48;;;;;;;;;;;-0.70;99.90;;;;;;4238858;27;19923;-56
2022/01/16 02:40:58;;;;;;;;;;;-0.70;99.90;;;;;;4240809;27;19955;-55
2022/01/16 02:43:02;;;;;;;;;;;-0.90;99.90;;;;;;4221708;27;19930;-55
2022/01/16 02:45:06;;;;;;;;;;;-0.80;99.90;;;;;;4239024;27;19927;-54
2022/01/16 02:47:10;;;;;;;;;;;-0.70;99.90;;;;;;4238086;27;20021;-55
2022/01/16 02:49:16;;;;;;;;;;;-0.60;99.90;;;;;;4236934;27;19928;-55
2022/01/16 02:51:20;;;;;;;;;;;-0.60;99.90;;;;;;4241251;27;20499;-56
2022/01/16 02:53:24;;;;;;;;;;;-0.70;99.90;;;;;;4237706;27;19927;-55
2022/01/16 02:55:27;;;;;;;;;;;-0.80;99.90;;;;;;4234442;27;19931;-55
2022/01/16 02:57:29;;;;;;;;;;;-0.80;99.90;;;;;;4238781;27;19924;-55
2022/01/16 02:59:33;;;;;;;;;;;-0.90;99.90;;;;;;4235915;27;19924;-55
2022/01/16 03:01:35;;;;;;;;;;;-1.00;99.90;;;;;;4235465;27;19962;-55
2022/01/16 03:03:37;;;;;;;;;;;-0.80;99.90;;;;;;4230433;27;20454;-55
2022/01/16 03:05:39;;;;;;;;;;;-0.80;99.90;;;;;;4218059;28;19932;-56
2022/01/16 03:07:41;;;;;;;;;;;-0.80;99.90;;;;;;4236771;27;19976;-56
2022/01/16 03:11:54;;;;;;;;;;;-0.90;99.90;;;;;;4239702;27;19927;-55
2022/01/16 03:13:56;;;;;;;;;;;-1.00;99.90;;;;;;4239339;27;19924;-55
2022/01/16 03:15:58;;;;;;;;;;;-1.10;99.90;;;;;;4236293;27;19927;-55
2022/01/16 03:22:23;;;;;;;;;;;-1.30;99.90;;;;;;4233737;27;19932;-54
2022/01/16 03:24:27;;;;;;;;;;;-1.30;99.90;;;;;;4230611;27;20067;-55
2022/01/16 03:26:29;;;;;;;;;;;-1.30;99.90;;;;;;4235087;27;19924;-55
2022/01/16 03:28:31;;;;;;;;;;;-1.20;99.90;;;;;;4227873;27;20031;-55
2022/01/16 03:30:33;;;;;;;;;;;-1.30;99.90;;;;;;4231001;27;19928;-55
2022/01/16 03:32:34;;;;;;;;;;;-1.40;99.90;;;;;;4233057;27;19931;-55
2022/01/16 03:34:37;;;;;;;;;;;-1.40;99.90;;;;;;4237353;27;19932;-55
2022/01/16 03:36:39;;;;;;;;;;;-1.20;99.90;;;;;;4236457;27;19967;-54
2022/01/16 03:38:41;;;;;;;;;;;-1.30;99.90;;;;;;4235679;27;19931;-54
2022/01/16 03:40:43;;;;;;;;;;;-1.20;99.90;;;;;;4228596;27;19927;-55
2022/01/16 03:42:45;;;;;;;;;;;-1.20;99.90;;;;;;4240049;27;20407;-55
2022/01/16 03:44:47;;;;;;;;;;;-1.20;99.90;;;;;;4226955;27;20640;-55
2022/01/16 03:46:49;;;;;;;;;;;-1.20;99.90;;;;;;4235745;27;19924;-55
2022/01/16 03:48:51;;;;;;;;;;;-1.30;99.90;;;;;;4231993;27;20391;-56
2022/01/16 03:50:53;;;;;;;;;;;-1.20;99.90;;;;;;4241588;27;19981;-55
2022/01/16 03:52:55;;;;;;;;;;;-1.20;99.90;;;;;;4233877;27;20409;-55
2022/01/16 03:54:57;;;;;;;;;;;-1.20;99.90;;;;;;4243736;27;20547;-55
2022/01/16 03:56:59;;;;;;;;;;;-1.10;99.90;;;;;;4211521;28;20007;-54
2022/01/16 03:59:01;;;;;;;;;;;-1.20;99.90;;;;;;4242493;27;20455;-54
2022/01/16 04:01:02;;;;;;;;;;;-1.20;99.90;;;;;;4232627;27;19966;-55
2022/01/16 04:03:05;;;;;;;;;;;-1.30;99.90;;;;;;4241239;27;20322;-54
2022/01/16 04:05:07;;;;;;;;;;;-1.40;99.90;;;;;;4231453;27;19927;-55
2022/01/16 04:07:14;;;;;;;;;;;-1.60;99.90;;;;;;4227379;27;19977;-55
2022/01/16 04:09:16;;;;;;;;;;;-1.70;99.90;;;;;;4232801;27;20018;-55
2022/01/16 04:11:18;;;;;;;;;;;-1.90;99.90;;;;;;4234330;27;19932;-54
2022/01/16 04:13:21;;;;;;;;;;;-2.00;99.90;;;;;;4235416;27;19937;-55
2022/01/16 04:15:32;;;;;;;;;;;-2.20;99.90;;;;;;4223335;28;19935;-55
2022/01/16 04:17:34;;;;;;;;;;;-2.20;99.90;;;;;;4230133;27;19927;-54
2022/01/16 04:19:35;;;;;;;;;;;-2.10;99.90;;;;;;4241742;27;19934;-54
2022/01/16 04:21:37;;;;;;;;;;;-2.00;99.90;;;;;;4231337;27;19923;-56
2022/01/16 04:23:39;;;;;;;;;;;-2.10;99.90;;;;;;4229358;28;19931;-55
2022/01/16 04:25:41;;;;;;;;;;;-1.90;99.90;;;;;;4234780;27;20364;-55
2022/01/16 04:27:43;;;;;;;;;;;-1.90;99.90;;;;;;4243435;27;20049;-55
2022/01/16 04:29:45;;;;;;;;;;;-1.90;99.90;;;;;;4234615;27;20022;-54
2022/01/16 04:31:47;;;;;;;;;;;-1.90;99.90;;;;;;4242615;27;19927;-55
2022/01/16 04:33:49;;;;;;;;;;;-2.00;99.90;;;;;;4231040;28;19923;-54
2022/01/16 04:35:51;;;;;;;;;;;-2.00;99.90;;;;;;4227395;28;19954;-55
2022/01/16 04:37:53;;;;;;;;;;;-2.10;99.90;;;;;;4233525;28;19927;-55
2022/01/16 04:40:05;;;;;;;;;;;-2.10;99.90;;;;;;4217804;28;19931;-54
2022/01/16 04:44:28;;;;;;;;;;;-2.10;99.90;;;;;;4235376;28;19934;-53
2022/01/16 04:46:31;;;;;;;;;;;-2.10;99.90;;;;;;4230886;28;19974;-56
2022/01/16 04:48:33;;;;;;;;;;;-2.20;99.90;;;;;;4223332;28;19931;-55
2022/01/16 04:50:35;;;;;;;;;;;-2.20;99.90;;;;;;4232084;28;19971;-56
2022/01/16 04:52:37;;;;;;;;;;;-2.20;99.90;;;;;;4243633;28;19927;-55
2022/01/16 04:54:39;;;;;;;;;;;-2.20;99.90;;;;;;4233575;28;20378;-56
2022/01/16 04:56:41;;;;;;;;;;;-2.20;99.90;;;;;;4223739;28;20031;-55
2022/01/16 04:58:44;;;;;;;;;;;-2.20;99.90;;;;;;4230423;28;19928;-55
2022/01/16 05:00:46;;;;;;;;;;;-2.30;99.90;;;;;;4240827;28;19931;-55
2022/01/16 05:02:48;;;;;;;;;;;-2.30;99.90;;;;;;4232863;28;20491;-56
2022/01/16 05:04:50;;;;;;;;;;;-2.10;99.90;;;;;;4243471;28;19931;-56
2022/01/16 05:06:52;;;;;;;;;;;-2.10;99.90;;;;;;4233840;28;19924;-56
2022/01/16 05:08:54;;;;;;;;;;;-2.00;99.90;;;;;;4241832;28;19928;-55
2022/01/16 05:10:57;;;;;;;;;;;-2.00;99.90;;;;;;4232661;28;19934;-55
2022/01/16 05:13:28;;;;;;;;;;;-2.00;99.90;;;;;;4240861;28;20399;-56
2022/01/16 05:17:41;;;;;;;;;;;-2.20;99.90;;;;;;4240175;28;19965;-55
2022/01/16 05:19:44;;;;;;;;;;;-2.00;99.90;;;;;;4237564;27;20051;-55
2022/01/16 05:21:46;;;;;;;;;;;-2.00;99.90;;;;;;4223951;28;20018;-56
2022/01/16 05:23:49;;;;;;;;;;;-2.10;99.90;;;;;;4213625;28;19931;-56
2022/01/16 05:25:50;;;;;;;;;;;-2.20;99.90;;;;;;4237866;27;20367;-55
2022/01/16 05:27:52;;;;;;;;;;;-2.20;99.90;;;;;;4237038;27;19987;-55
2022/01/16 05:29:54;;;;;;;;;;;-2.20;99.90;;;;;;4245659;27;19928;-56
2022/01/16 05:31:56;;;;;;;;;;;-2.10;99.90;;;;;;4214599;28;20411;-56
2022/01/16 05:33:58;;;;;;;;;;;-1.90;99.90;;;;;;4233058;27;19927;-55
2022/01/16 05:36:00;;;;;;;;;;;-2.00;99.90;;;;;;4236409;27;19928;-54
2022/01/16 05:38:02;;;;;;;;;;;-1.90;99.90;;;;;;4245985;27;20387;-55
2022/01/16 05:40:04;;;;;;;;;;;-1.90;99.90;;;;;;4233905;27;19928;-55
2022/01/16 05:42:07;;;;;;;;;;;-2.00;99.90;;;;;;4234555;27;20031;-55
2022/01/16 05:44:09;;;;;;;;;;;-2.20;99.90;;;;;;4236915;27;19934;-55
2022/01/16 05:46:11;;;;;;;;;;;-2.30;99.90;;;;;;4246025;27;19927;-55
2022/01/16 05:48:13;;;;;;;;;;;-2.10;99.90;;;;;;4236399;27;19932;-55
2022/01/16 05:50:15;;;;;;;;;;;-2.00;99.90;;;;;;4238940;27;19950;-54
2022/01/16 05:52:18;;;;;;;;;;;-2.00;99.90;;;;;;4234218;27;20119;-54
2022/01/16 05:54:20;;;;;;;;;;;-2.10;99.90;;;;;;4237422;27;19950;-54
2022/01/16 05:56:22;;;;;;;;;;;-2.30;99.90;;;;;;4237679;27;20085;-53
2022/01/16 05:58:24;;;;;;;;;;;-2.40;99.90;;;;;;4246073;27;19962;-55
2022/01/16 06:00:26;;;;;;;;;;;-2.30;99.90;;;;;;4233570;27;20339;-55
2022/01/16 06:02:28;;;;;;;;;;;-2.40;99.90;;;;;;4229764;27;20374;-55
2022/01/16 06:04:30;;;;;;;;;;;-2.30;99.90;;;;;;4237818;27;19971;-55
2022/01/16 06:06:32;;;;;;;;;;;-2.30;99.90;;;;;;4245097;27;20101;-55
2022/01/16 06:08:34;;;;;;;;;;;-2.30;99.90;;;;;;4236619;27;20005;-54
2022/01/16 06:10:36;;;;;;;;;;;-2.30;99.90;;;;;;4242003;27;19977;-55
2022/01/16 06:12:38;;;;;;;;;;;-2.40;99.90;;;;;;4233267;27;19935;-55
2022/01/16 06:14:40;;;;;;;;;;;-2.40;99.90;;;;;;4239554;27;20557;-55
2022/01/16 06:16:41;;;;;;;;;;;-2.30;99.90;;;;;;4236011;27;19939;-54
2022/01/16 06:18:44;;;;;;;;;;;-2.20;99.90;;;;;;4210817;28;19924;-55
2022/01/16 06:20:47;;;;;;;;;;;-2.30;99.90;;;;;;4234551;27;19932;-55
2022/01/16 06:22:49;;;;;;;;;;;-2.40;99.90;;;;;;4245957;27;19934;-55
2022/01/16 06:24:51;;;;;;;;;;;-2.40;99.90;;;;;;4235426;27;19959;-55
2022/01/16 06:26:53;;;;;;;;;;;-2.40;99.90;;;;;;4245181;27;20372;-56
2022/01/16 06:28:55;;;;;;;;;;;-2.40;99.90;;;;;;4239115;27;19970;-56
2022/01/16 06:30:58;;;;;;;;;;;-2.40;99.90;;;;;;4238495;27;19931;-56
2022/01/16 06:33:03;;;;;;;;;;;-2.40;99.90;;;;;;4218127;28;19932;-56
2022/01/16 06:35:05;;;;;;;;;;;-2.40;99.90;;;;;;4245483;27;19972;-54
2022/01/16 06:37:07;;;;;;;;;;;-2.60;99.90;;;;;;4233237;27;20363;-55
2022/01/16 06:39:11;;;;;;;;;;;-2.60;99.90;;;;;;4242685;27;20026;-55
2022/01/16 06:41:13;;;;;;;;;;;-2.40;99.90;;;;;;4233889;27;19924;-56
2022/01/16 06:43:15;;;;;;;;;;;-2.40;99.90;;;;;;4244668;27;20018;-54
2022/01/16 06:45:17;;;;;;;;;;;-2.40;99.90;;;;;;4237387;27;19951;-56
2022/01/16 06:47:19;;;;;;;;;;;-2.50;99.90;;;;;;4241106;27;19966;-55
2022/01/16 06:49:21;;;;;;;;;;;-2.70;99.90;;;;;;4233797;27;19951;-55
2022/01/16 06:51:24;;;;;;;;;;;-2.80;99.90;;;;;;4243384;27;19931;-55
2022/01/16 06:53:26;;;;;;;;;;;-2.80;99.90;;;;;;4237859;27;19939;-56
2022/01/16 06:55:28;;;;;;;;;;;-2.80;99.90;;;;;;4239923;27;20014;-56
2022/01/16 06:57:30;;;;;;;;;;;-2.80;99.90;;;;;;4238206;27;20387;-55
2022/01/16 06:59:34;;;;;;;;;;;-2.90;99.90;;;;;;4228031;28;20395;-56
2022/01/16 07:01:36;;;;;;;;;;;-2.90;99.90;;;;;;4232591;27;20024;-56
2022/01/16 07:03:38;;;;;;;;;;;-3.00;99.90;;;;;;4238548;27;19924;-54
2022/01/16 07:05:41;;;;;;;;;;;-2.90;99.90;;;;;;4236445;27;19962;-55
2022/01/16 07:07:43;;;;;;;;;;;-3.00;99.90;;;;;;4236400;27;19924;-55
2022/01/16 07:09:45;;;;;;;;;;;-3.00;99.90;;;;;;4234617;27;19934;-55
2022/01/16 07:11:47;;;;;;;;;;;-2.90;99.90;;;;;;4225200;28;20041;-55
2022/01/16 07:13:49;;;;;;;;;;;-2.90;99.90;;;;;;4242636;27;19928;-56
2022/01/16 07:15:51;;;;;;;;;;;-2.90;99.90;;;;;;4233269;27;19934;-55
2022/01/16 07:17:53;;;;;;;;;;;-2.90;99.90;;;;;;4235194;27;20299;-56
2022/01/16 07:19:55;;;;;;;;;;;-2.80;99.90;;;;;;4236819;27;19934;-54
2022/01/16 07:21:57;;;;;;;;;;;-2.50;99.90;;;;;;4231180;27;19969;-56
2022/01/16 07:23:59;;;;;;;;;;;-2.40;99.90;;;;;;4237240;27;19977;-56
2022/01/16 07:26:01;;;;;;;;;;;-2.30;99.90;;;;;;4242904;27;19930;-56
2022/01/16 07:28:03;;;;;;;;;;;-2.20;99.90;;;;;;4229525;27;19927;-56
2022/01/16 07:30:05;;;;;;;;;;;-2.10;99.90;;;;;;4232761;27;19927;-55
2022/01/16 07:32:07;;;;;;;;;;;-1.90;99.90;;;;;;4239836;27;19928;-56
2022/01/16 07:34:09;;;;;;;;;;;-1.90;99.90;;;;;;4240012;27;19924;-55
2022/01/16 07:36:11;;;;;;;;;;;-1.90;99.90;;;;;;4231283;27;19924;-56
2022/01/16 07:38:13;;;;;;;;;;;-2.00;99.90;;;;;;4230925;27;19959;-56
2022/01/16 07:40:15;;;;;;;;;;;-2.00;99.90;;;;;;4230077;27;19927;-56
2022/01/16 07:42:17;;;;;;;;;;;-2.00;99.90;;;;;;4229789;27;20421;-56
2022/01/16 07:44:19;;;;;;;;;;;-2.00;99.90;;;;;;4230246;27;20273;-55
2022/01/16 07:46:21;;;;;;;;;;;-1.90;99.90;;;;;;4237708;27;20399;-56
2022/01/16 07:48:23;;;;;;;;;;;-1.90;99.90;;;;;;4234977;27;19930;-55
2022/01/16 07:50:25;;;;;;;;;;;-1.90;99.90;;;;;;4244377;27;20039;-56
2022/01/16 07:52:27;;;;;;;;;;;-1.90;99.90;;;;;;4233153;27;19934;-55
2022/01/16 07:54:29;;;;;;;;;;;-2.00;99.90;;;;;;4216138;28;19924;-56
2022/01/16 07:56:31;;;;;;;;;;;-2.00;99.90;;;;;;4234154;27;20406;-54
2022/01/16 07:58:33;;;;;;;;;;;-2.00;99.90;;;;;;4241992;27;19958;-55
2022/01/16 08:00:35;;;;;;;;;;;-2.00;99.90;;;;;;4235111;27;20295;-56
2022/01/16 08:02:39;;;;;;;;;;;-1.90;99.90;;;;;;4232701;27;20387;-56
2022/01/16 08:04:41;;;;;;;;;;;-2.00;99.90;;;;;;4232589;27;20595;-56
2022/01/16 08:06:43;;;;;;;;;;;-2.00;99.90;;;;;;4229359;27;19977;-55
2022/01/16 08:08:45;;;;;;;;;;;-2.00;99.90;;;;;;4234752;27;20592;-55
2022/01/16 08:10:48;;;;;;;;;;;-2.00;99.90;;;;;;4233469;27;20317;-56
2022/01/16 08:12:50;;;;;;;;;;;-2.00;99.90;;;;;;4238015;27;19976;-54
2022/01/16 08:14:52;;;;;;;;;;;-1.90;99.90;;;;;;4236677;27;19988;-56
2022/01/16 08:16:56;;;;;;;;;;;-1.90;99.90;;;;;;4231943;27;20518;-55
2022/01/16 08:18:58;;;;;;;;;;;-1.80;99.90;;;;;;4238522;27;20363;-56
2022/01/16 08:21:00;;;;;;;;;;;-1.70;99.90;;;;;;4233430;27;19927;-56
2022/01/16 08:23:02;;;;;;;;;;;-1.60;99.90;;;;;;4221898;28;19923;-56
2022/01/16 08:25:05;;;;;;;;;;;-1.60;99.90;;;;;;4239252;27;19963;-56
2022/01/16 08:27:07;;;;;;;;;;;-1.60;99.90;;;;;;4233527;28;19974;-55
2022/01/16 08:29:09;;;;;;;;;;;-1.60;99.90;;;;;;4237827;28;19931;-55
2022/01/16 08:31:11;;;;;;;;;;;-1.50;99.90;;;;;;4242389;27;20311;-56
2022/01/16 08:33:13;;;;;;;;;;;-1.40;99.90;;;;;;4238603;28;19946;-56
2022/01/16 08:35:15;;;;;;;;;;;-1.20;99.90;;;;;;4210964;28;19924;-57
2022/01/16 08:37:17;;;;;;;;;;;-1.10;99.90;;;;;;4230743;28;19978;-56
2022/01/16 08:39:19;;;;;;;;;;;-1.00;99.90;;;;;;4227854;28;19930;-56
2022/01/16 08:41:21;;;;;;;;;;;-0.90;99.90;;;;;;4240062;28;19953;-56
2022/01/16 08:43:24;;;;;;;;;;;-0.90;99.90;;;;;;4231668;28;19928;-57
2022/01/16 08:45:26;;;;;;;;;;;-0.80;99.90;;;;;;4239138;28;20413;-56
2022/01/16 08:47:29;;;;;;;;;;;-0.80;99.90;;;;;;4233751;28;19924;-56
2022/01/16 08:49:31;;;;;;;;;;;-0.80;99.90;;;;;;4241972;28;19927;-56
2022/01/16 08:51:33;;;;;;;;;;;-0.70;99.90;;;;;;4231208;28;19923;-56
2022/01/16 08:53:35;;;;;;;;;;;-0.70;99.90;;;;;;4236976;27;19943;-57
2022/01/16 08:55:37;;;;;;;;;;;-0.60;99.90;;;;;;4239347;27;19931;-56
2022/01/16 08:57:39;;;;;;;;;;;-0.40;99.90;;;;;;4246672;27;19927;-56
2022/01/16 08:59:41;;;;;;;;;;;-0.40;99.90;;;;;;4234446;27;19931;-57
2022/01/16 09:01:44;;;;;;;;;;;-0.30;99.90;;;;;;4240343;27;19928;-56
2022/01/16 09:03:47;;;;;;;;;;;-0.20;99.90;;;;;;4235890;27;20041;-56
2022/01/16 09:05:50;;;;;;;;;;;-0.30;99.90;;;;;;4240768;27;19923;-57
2022/01/16 09:07:52;;;;;;;;;;;-0.30;99.90;;;;;;4237360;27;19934;-56
2022/01/16 09:09:56;;;;;;;;;;;-0.20;99.90;;;;;;4241755;27;19959;-56
2022/01/16 09:11:59;;;;;;;;;;;-0.20;99.90;;;;;;4235292;27;20380;-57
2022/01/16 09:14:00;;;;;;;;;;;-0.10;99.90;;;;;;4237612;27;20027;-56
2022/01/16 09:16:02;;;;;;;;;;;0.00;99.90;;;;;;4234293;27;19932;-56
2022/01/16 09:18:05;;;;;;;;;;;0.20;99.90;;;;;;4240130;27;19931;-56
2022/01/16 09:20:07;;;;;;;;;;;0.50;99.90;;;;;;4217948;27;19956;-56
2022/01/16 09:22:09;;;;;;;;;;;0.50;99.90;;;;;;4243076;27;19934;-56
2022/01/16 09:24:11;;;;;;;;;;;0.50;99.90;;;;;;4233824;27;19967;-57
2022/01/16 09:26:14;;;;;;;;;;;0.70;99.90;;;;;;4239305;27;19927;-57
2022/01/16 09:28:16;;;;;;;;;;;0.70;99.90;;;;;;4238489;27;19966;-57
2022/01/16 09:30:19;;;;;;;;;;;0.70;99.90;;;;;;4232076;27;20030;-56
2022/01/16 09:32:21;;;;;;;;;;;0.80;99.90;;;;;;4239005;27;19923;-57
2022/01/16 09:34:23;;;;;;;;;;;0.90;99.90;;;;;;4232760;27;20026;-56
2022/01/16 09:36:25;;;;;;;;;;;0.80;99.90;;;;;;4234342;27;19955;-56
2022/01/16 09:38:26;;;;;;;;;;;0.90;99.90;;;;;;4242525;27;20054;-57
2022/01/16 09:40:29;;;;;;;;;;;0.90;99.90;;;;;;4240691;27;19923;-57
2022/01/16 09:42:31;;;;;;;;;;;1.00;99.90;;;;;;4229647;28;19973;-57
2022/01/16 09:44:39;;;;;;;;;;;1.00;99.90;;;;;;4236487;27;20023;-55
2022/01/16 09:46:41;;;;;;;;;;;1.00;99.90;;;;;;4233771;27;19938;-56
2022/01/16 09:48:43;;;;;;;;;;;1.00;99.90;;;;;;4239957;27;20421;-56
2022/01/16 09:50:45;;;;;;;;;;;1.10;99.90;;;;;;4241203;27;20521;-56
2022/01/16 09:52:48;;;;;;;;;;;1.00;99.90;;;;;;4238410;27;19970;-56
2022/01/16 09:54:50;;;;;;;;;;;0.90;99.90;;;;;;4231993;27;19923;-57
2022/01/16 09:56:52;;;;;;;;;;;0.90;99.90;;;;;;4234247;27;19969;-56
2022/01/16 09:58:54;;;;;;;;;;;0.80;99.90;;;;;;4231992;27;20019;-56
2022/01/16 10:00:56;;;;;;;;;;;0.90;99.90;;;;;;4233654;27;19946;-56
2022/01/16 10:02:58;;;;;;;;;;;1.00;99.90;;;;;;4235660;27;19930;-56
2022/01/16 10:05:00;;;;;;;;;;;1.10;99.90;;;;;;4214331;28;20347;-56
2022/01/16 10:07:04;;;;;;;;;;;1.40;99.90;;;;;;4221904;28;19923;-57
2022/01/16 10:09:15;;;;;;;;;;;1.50;99.90;;;;;;4232168;27;19933;-58
2022/01/16 10:11:37;;;;;;;;;;;1.60;99.90;;;;;;4239456;27;20239;-57
2022/01/16 10:13:58;;;;;;;;;;;1.80;99.90;;;;;;4234282;27;19928;-57
2022/01/16 10:16:00;;;;;;;;;;;2.00;99.90;;;;;;4240583;27;20371;-56
2022/01/16 10:18:05;;;;;;;;;;;2.10;99.90;;;;;;4238325;27;19927;-57
2022/01/16 10:20:07;;;;;;;;;;;2.10;99.90;;;;;;4240938;27;19990;-56
2022/01/16 10:22:13;;;;;;;;;;;2.20;99.90;;;;;;4239995;27;19978;-56
2022/01/16 10:24:16;;;;;;;;;;;2.30;99.90;;;;;;4241384;27;19930;-56
2022/01/16 10:26:22;;;;;;;;;;;2.40;99.90;;;;;;4238078;27;19971;-57
2022/01/16 10:28:25;;;;;;;;;;;2.40;99.90;;;;;;4240290;27;19966;-57
2022/01/16 10:30:37;;;;;;;;;;;2.40;99.90;;;;;;4239294;27;20019;-57
2022/01/16 10:32:46;;;;;;;;;;;2.40;99.90;;;;;;4231557;27;20575;-57
2022/01/16 10:34:49;;;;;;;;;;;2.40;99.90;;;;;;4233635;27;19937;-56
2022/01/16 10:36:51;;;;;;;;;;;2.50;99.90;;;;;;4238073;27;19934;-56
2022/01/16 10:39:03;;;;;;;;;;;2.60;99.90;;;;;;4236880;27;19971;-56
2022/01/16 10:41:12;;;;;;;;;;;2.60;99.90;;;;;;4238979;27;20026;-56
2022/01/16 10:43:15;;;;;;;;;;;2.80;99.90;;;;;;4235827;27;20030;-56
2022/01/16 10:45:18;;;;;;;;;;;3.00;99.90;;;;;;4235596;27;19924;-57
2022/01/16 10:47:33;;;;;;;;;;;3.10;99.90;;;;;;4234724;27;20006;-57
2022/01/16 10:49:35;;;;;;;;;;;3.20;99.90;;;;;;4240045;27;19927;-56
2022/01/16 10:51:38;;;;;;;;;;;3.30;99.90;;;;;;4238566;27;19966;-56
2022/01/16 10:53:40;;;;;;;;;;;3.40;99.90;;;;;;4232334;27;19974;-56
2022/01/16 10:55:44;;;;;;;;;;;3.50;99.90;;;;;;4241294;27;20534;-55
2022/01/16 10:57:46;;;;;;;;;;;3.60;99.90;;;;;;4232074;27;19924;-55
2022/01/16 10:59:48;;;;;;;;;;;3.70;99.90;;;;;;4234639;27;19958;-57
2022/01/16 11:02:07;;;;;;;;;;;3.80;99.90;;;;;;4233966;27;20375;-56
2022/01/16 11:04:09;;;;;;;;;;;3.80;99.90;;;;;;4233917;27;20340;-55
2022/01/16 11:06:12;;;;;;;;;;;3.90;99.90;;;;;;4217861;28;21367;-55
2022/01/16 11:08:21;;;;;;;;;;;3.90;99.90;;;;;;4234741;27;19924;-56
2022/01/16 11:10:26;;;;;;;;;;;4.00;99.90;;;;;;4233106;27;19923;-56
2022/01/16 11:12:34;;;;;;;;;;;4.00;99.90;;;;;;4235810;27;19927;-56
2022/01/16 11:14:36;;;;;;;;;;;4.20;99.90;;;;;;4238998;27;20377;-57
2022/01/16 11:16:38;;;;;;;;;;;4.20;99.90;;;;;;4238191;27;19966;-56
2022/01/16 11:18:47;;;;;;;;;;;4.30;99.90;;;;;;4209123;28;19960;-56
2022/01/16 11:21:03;;;;;;;;;;;4.30;99.90;;;;;;4235442;27;19959;-57
2022/01/16 11:25:23;;;;;;;;;;;4.50;99.90;;;;;;4236004;27;19930;-57
2022/01/16 11:27:25;;;;;;;;;;;4.60;99.90;;;;;;4239628;27;19953;-57
2022/01/16 11:29:29;;;;;;;;;;;4.60;99.90;;;;;;4230969;27;19976;-56
2022/01/16 11:31:31;;;;;;;;;;;4.70;99.90;;;;;;4231828;27;19927;-57
2022/01/16 11:33:34;;;;;;;;;;;4.80;99.90;;;;;;4233526;27;19966;-57
2022/01/16 11:35:40;;;;;;;;;;;4.90;99.90;;;;;;4242908;27;19930;-57
2022/01/16 11:37:43;;;;;;;;;;;4.90;99.90;;;;;;4234554;27;19990;-56
2022/01/16 11:40:18;;;;;;;;;;;4.80;99.90;;;;;;4239093;27;19923;-56
2022/01/16 11:42:26;;;;;;;;;;;5.00;99.90;;;;;;4234267;27;19953;-57
2022/01/16 11:44:30;;;;;;;;;;;5.20;99.90;;;;;;4224592;28;19959;-57
2022/01/16 11:46:33;;;;;;;;;;;5.10;99.90;;;;;;4233268;27;20014;-57
2022/01/16 11:48:36;;;;;;;;;;;5.10;99.90;;;;;;4243978;27;20391;-57
2022/01/16 11:50:58;;;;;;;;;;;5.30;99.90;;;;;;4234952;27;19970;-57
2022/01/16 11:53:00;;;;;;;;;;;5.30;99.90;;;;;;4243597;27;19924;-57
2022/01/16 11:55:06;;;;;;;;;;;5.40;99.90;;;;;;4229931;27;20478;-57
2022/01/16 11:57:20;;;;;;;;;;;5.70;99.90;;;;;;4227757;27;19959;-57
2022/01/16 11:59:34;;;;;;;;;;;5.80;99.90;;;;;;4235955;27;19935;-57
2022/01/16 12:01:43;;;;;;;;;;;5.50;99.90;;;;;;4234092;27;20005;-56
2022/01/16 12:03:44;;;;;;;;;;;5.30;99.90;;;;;;4231546;27;19954;-57
2022/01/16 12:05:47;;;;;;;;;;;5.20;99.90;;;;;;4239875;27;19928;-56
2022/01/16 12:07:50;;;;;;;;;;;5.40;99.90;;;;;;4237371;27;19931;-56
2022/01/16 12:09:57;;;;;;;;;;;5.60;99.90;;;;;;4231269;27;20023;-57
2022/01/16 12:11:59;;;;;;;;;;;5.80;99.90;;;;;;4238889;27;19971;-57
2022/01/16 12:14:01;;;;;;;;;;;5.80;99.90;;;;;;4238781;27;19935;-56
2022/01/16 12:16:22;;;;;;;;;;;5.70;99.90;;;;;;4229780;27;19978;-56
2022/01/16 12:18:34;;;;;;;;;;;5.90;99.90;;;;;;4235266;27;19962;-57
2022/01/16 12:20:36;;;;;;;;;;;6.30;99.90;;;;;;4240403;27;20010;-57
2022/01/16 12:22:42;;;;;;;;;;;6.40;99.90;;;;;;4239569;27;19934;-57
2022/01/16 12:24:47;;;;;;;;;;;6.60;99.90;;;;;;4239476;27;19933;-57
2022/01/16 12:26:49;;;;;;;;;;;6.30;99.90;;;;;;4231734;28;19932;-56
2022/01/16 12:28:57;;;;;;;;;;;6.50;99.90;;;;;;4241224;27;19932;-56
2022/01/16 12:31:04;;;;;;;;;;;6.50;99.90;;;;;;4233441;27;20334;-56
2022/01/16 12:33:15;;;;;;;;;;;6.60;99.90;;;;;;4243397;27;19954;-57
2022/01/16 12:35:36;;;;;;;;;;;6.70;99.90;;;;;;4234940;27;19928;-57
2022/01/16 12:37:44;;;;;;;;;;;6.60;99.90;;;;;;4227410;28;20018;-57
2022/01/16 12:39:46;;;;;;;;;;;6.70;99.90;;;;;;4235332;28;19969;-57
2022/01/16 12:41:51;;;;;;;;;;;6.80;99.90;;;;;;4229531;28;20376;-57